sensor_id;sensor_type;location;lat;lon;timestamp;temperature;humidity
54558;DHT22;40452;50.080;20.040;2023-01-08T07:28:25;20.40;55.90
54558;DHT22;40452;50.080;20.040;2023-01-08T07:30:50;20.40;56.50
54558;DHT22;40452;50.080;20.040;2023-01-08T07:33:16;20.40;56.40
54558;DHT22;40452;50.080;20.040;2023-01-08T07:35:41;20.50;56.40
54558;DHT22;40452;50.080;20.040;2023-01-08T07:38:13;20.40;56.30
54558;DHT22;40452;50.080;20.040;2023-01-08T07:40:38;20.50;56.50
54558;DHT22;40452;50.080;20.040;2023-01-08T07:43:10;20.50;56.40
54558;DHT22;40452;50.080;20.040;2023-01-08T07:45:41;20.60;56.40
54558;DHT22;40452;50.080;20.040;2023-01-08T07:48:07;20.50;56.30
54558;DHT22;40452;50.080;20.040;2023-01-08T07:50:36;20.60;56.30
54558;DHT22;40452;50.080;20.040;2023-01-08T07:53:04;20.60;56.40
54558;DHT22;40452;50.080;20.040;2023-01-08T07:55:30;20.60;56.30
54558;DHT22;40452;50.080;20.040;2023-01-08T07:57:56;20.60;56.20
54558;DHT22;40452;50.080;20.040;2023-01-08T08:00:24;20.60;56.30
54558;DHT22;40452;50.080;20.040;2023-01-08T08:02:52;20.60;56.20
54558;DHT22;40452;50.080;20.040;2023-01-08T08:05:17;20.60;56.30
54558;DHT22;40452;50.080;20.040;2023-01-08T08:07:43;20.60;56.30
54558;DHT22;40452;50.080;20.040;2023-01-08T08:10:09;20.60;56.20
54558;DHT22;40452;50.080;20.040;2023-01-08T08:12:36;20.60;56.20
54558;DHT22;40452;50.080;20.040;2023-01-08T08:15:04;20.60;56.20
54558;DHT22;40452;50.080;20.040;2023-01-08T08:17:30;20.60;56.20
54558;DHT22;40452;50.080;20.040;2023-01-08T08:19:56;20.60;56.10
54558;DHT22;40452;50.080;20.040;2023-01-08T08:22:21;20.60;56.10
54558;DHT22;40452;50.080;20.040;2023-01-08T08:24:47;20.70;56.20
54558;DHT22;40452;50.080;20.040;2023-01-08T08:27:12;20.70;56.20
54558;DHT22;40452;50.080;20.040;2023-01-08T08:29:38;20.60;56.10
54558;DHT22;40452;50.080;20.040;2023-01-08T08:32:03;20.70;56.10
54558;DHT22;40452;50.080;20.040;2023-01-08T08:34:29;20.70;56.10
54558;DHT22;40452;50.080;20.040;2023-01-08T08:36:55;20.70;56.00
54558;DHT22;40452;50.080;20.040;2023-01-08T08:39:20;20.60;56.00
54558;DHT22;40452;50.080;20.040;2023-01-08T08:41:46;20.70;56.00
54558;DHT22;40452;50.080;20.040;2023-01-08T08:44:11;20.70;56.00
54558;DHT22;40452;50.080;20.040;2023-01-08T08:46:37;20.70;56.00
54558;DHT22;40452;50.080;20.040;2023-01-08T08:49:02;20.70;56.00
54558;DHT22;40452;50.080;20.040;2023-01-08T08:51:31;20.70;56.00
54558;DHT22;40452;50.080;20.040;2023-01-08T08:53:56;20.60;55.90
54558;DHT22;40452;50.080;20.040;2023-01-08T08:56:22;20.70;55.90
54558;DHT22;40452;50.080;20.040;2023-01-08T08:58:50;19.60;49.30
54558;DHT22;40452;50.080;20.040;2023-01-08T09:01:16;17.50;47.30
54558;DHT22;40452;50.080;20.040;2023-01-08T09:03:45;16.80;48.20
54558;DHT22;40452;50.080;20.040;2023-01-08T09:06:13;16.40;47.40
54558;DHT22;40452;50.080;20.040;2023-01-08T09:08:42;15.50;46.50
54558;DHT22;40452;50.080;20.040;2023-01-08T09:11:08;16.40;51.30
54558;DHT22;40452;50.080;20.040;2023-01-08T09:13:36;17.30;51.70
54558;DHT22;40452;50.080;20.040;2023-01-08T09:16:03;18.00;51.30
54558;DHT22;40452;50.080;20.040;2023-01-08T09:18:32;18.40;51.10
54558;DHT22;40452;50.080;20.040;2023-01-08T09:20:57;18.70;51.20
54558;DHT22;40452;50.080;20.040;2023-01-08T09:23:23;19.00;51.30
54558;DHT22;40452;50.080;20.040;2023-01-08T09:25:49;19.20;51.30
54558;DHT22;40452;50.080;20.040;2023-01-08T09:38:15;19.70;51.80
54558;DHT22;40452;50.080;20.040;2023-01-08T09:40:53;19.70;51.80
54558;DHT22;40452;50.080;20.040;2023-01-08T09:43:25;19.80;51.80
54558;DHT22;40452;50.080;20.040;2023-01-08T09:45:57;19.80;51.60
54558;DHT22;40452;50.080;20.040;2023-01-08T09:48:36;19.80;51.80
54558;DHT22;40452;50.080;20.040;2023-01-08T09:51:31;19.80;51.90
54558;DHT22;40452;50.080;20.040;2023-01-08T09:57:28;20.00;51.90
54558;DHT22;40452;50.080;20.040;2023-01-08T10:00:14;20.00;51.90
54558;DHT22;40452;50.080;20.040;2023-01-08T10:02:50;20.00;52.00
54558;DHT22;40452;50.080;20.040;2023-01-08T10:05:20;20.10;52.10
54558;DHT22;40452;50.080;20.040;2023-01-08T10:08:11;20.10;52.10
54558;DHT22;40452;50.080;20.040;2023-01-08T10:10:59;20.10;52.10
54558;DHT22;40452;50.080;20.040;2023-01-08T10:17:15;20.30;52.20
54558;DHT22;40452;50.080;20.040;2023-01-08T10:23:15;20.20;52.10
54558;DHT22;40452;50.080;20.040;2023-01-08T10:26:00;20.30;52.20
54558;DHT22;40452;50.080;20.040;2023-01-08T10:28:33;20.40;52.20
54558;DHT22;40452;50.080;20.040;2023-01-08T10:31:07;20.40;52.20
54558;DHT22;40452;50.080;20.040;2023-01-08T10:36:59;20.40;52.20
54558;DHT22;40452;50.080;20.040;2023-01-08T10:39:26;20.40;52.30
54558;DHT22;40452;50.080;20.040;2023-01-08T10:42:02;20.50;52.30
54558;DHT22;40452;50.080;20.040;2023-01-08T10:44:29;20.50;52.30
54558;DHT22;40452;50.080;20.040;2023-01-08T10:46:58;20.50;52.30
54558;DHT22;40452;50.080;20.040;2023-01-08T10:49:34;20.40;52.30
54558;DHT22;40452;50.080;20.040;2023-01-08T10:52:03;20.50;52.30
54558;DHT22;40452;50.080;20.040;2023-01-08T10:56:59;20.50;52.40
54558;DHT22;40452;50.080;20.040;2023-01-08T10:59:25;20.50;52.40
54558;DHT22;40452;50.080;20.040;2023-01-08T11:01:54;20.60;52.50
54558;DHT22;40452;50.080;20.040;2023-01-08T11:04:29;20.60;52.50
54558;DHT22;40452;50.080;20.040;2023-01-08T11:07:00;20.60;52.50
54558;DHT22;40452;50.080;20.040;2023-01-08T11:09:30;20.60;52.50
54558;DHT22;40452;50.080;20.040;2023-01-08T11:11:57;20.60;52.50
54558;DHT22;40452;50.080;20.040;2023-01-08T11:14:29;20.60;52.40
54558;DHT22;40452;50.080;20.040;2023-01-08T11:16:56;20.60;52.50
54558;DHT22;40452;50.080;20.040;2023-01-08T11:19:26;20.60;52.50
54558;DHT22;40452;50.080;20.040;2023-01-08T11:22:01;20.70;52.60
54558;DHT22;40452;50.080;20.040;2023-01-08T11:30:08;20.70;52.60
54558;DHT22;40452;50.080;20.040;2023-01-08T11:32:46;20.70;52.60
54558;DHT22;40452;50.080;20.040;2023-01-08T11:35:25;20.70;52.60
54558;DHT22;40452;50.080;20.040;2023-01-08T11:37:58;20.70;52.60
54558;DHT22;40452;50.080;20.040;2023-01-08T11:52:03;20.70;52.60
54558;DHT22;40452;50.080;20.040;2023-01-08T12:02:50;20.80;52.80
54558;DHT22;40452;50.080;20.040;2023-01-08T12:08:12;20.80;53.00
54558;DHT22;40452;50.080;20.040;2023-01-08T12:10:44;20.80;52.90
54558;DHT22;40452;50.080;20.040;2023-01-08T12:18:28;20.90;53.10
54558;DHT22;40452;50.080;20.040;2023-01-08T12:24:10;20.90;53.20
54558;DHT22;40452;50.080;20.040;2023-01-08T12:35:03;20.90;53.20
54558;DHT22;40452;50.080;20.040;2023-01-08T12:37:47;20.90;53.30
54558;DHT22;40452;50.080;20.040;2023-01-08T12:40:26;20.90;53.30
54558;DHT22;40452;50.080;20.040;2023-01-08T12:42:57;20.90;53.30
54558;DHT22;40452;50.080;20.040;2023-01-08T12:45:43;21.00;53.50
54558;DHT22;40452;50.080;20.040;2023-01-08T12:48:21;20.90;53.30
54558;DHT22;40452;50.080;20.040;2023-01-08T12:50:51;21.00;53.40
54558;DHT22;40452;50.080;20.040;2023-01-08T12:53:42;21.00;53.40
54558;DHT22;40452;50.080;20.040;2023-01-08T13:01:28;21.00;53.50
54558;DHT22;40452;50.080;20.040;2023-01-08T13:03:57;21.00;54.20
54558;DHT22;40452;50.080;20.040;2023-01-08T13:06:23;21.00;53.60
54558;DHT22;40452;50.080;20.040;2023-01-08T13:08:51;21.00;53.60
54558;DHT22;40452;50.080;20.040;2023-01-08T13:14:02;21.00;53.70
54558;DHT22;40452;50.080;20.040;2023-01-08T13:16:29;21.10;53.60
54558;DHT22;40452;50.080;20.040;2023-01-08T13:19:00;21.10;53.60
54558;DHT22;40452;50.080;20.040;2023-01-08T13:21:41;21.00;53.60
54558;DHT22;40452;50.080;20.040;2023-01-08T13:26:48;21.10;53.60
54558;DHT22;40452;50.080;20.040;2023-01-08T13:29:24;21.00;53.50
54558;DHT22;40452;50.080;20.040;2023-01-08T13:31:50;21.10;53.60
54558;DHT22;40452;50.080;20.040;2023-01-08T13:34:37;21.00;53.60
54558;DHT22;40452;50.080;20.040;2023-01-08T13:37:04;21.00;53.60
54558;DHT22;40452;50.080;20.040;2023-01-08T13:39:33;21.10;53.60
54558;DHT22;40452;50.080;20.040;2023-01-08T13:44:50;21.10;53.60
54558;DHT22;40452;50.080;20.040;2023-01-08T13:49:54;21.10;53.60
54558;DHT22;40452;50.080;20.040;2023-01-08T13:52:42;21.10;53.60
54558;DHT22;40452;50.080;20.040;2023-01-08T13:55:42;21.10;53.60
54558;DHT22;40452;50.080;20.040;2023-01-08T13:58:25;21.10;53.60
54558;DHT22;40452;50.080;20.040;2023-01-08T14:00:55;21.10;53.60
54558;DHT22;40452;50.080;20.040;2023-01-08T14:03:27;21.10;53.60
54558;DHT22;40452;50.080;20.040;2023-01-08T14:11:20;21.10;53.60
54558;DHT22;40452;50.080;20.040;2023-01-08T14:13:47;21.10;53.60
54558;DHT22;40452;50.080;20.040;2023-01-08T14:16:14;21.10;53.60
54558;DHT22;40452;50.080;20.040;2023-01-08T14:18:44;21.10;53.60
54558;DHT22;40452;50.080;20.040;2023-01-08T14:21:14;21.10;53.60
54558;DHT22;40452;50.080;20.040;2023-01-08T14:23:46;21.10;53.60
54558;DHT22;40452;50.080;20.040;2023-01-08T14:26:33;21.10;53.60
54558;DHT22;40452;50.080;20.040;2023-01-08T14:29:01;21.10;53.60
54558;DHT22;40452;50.080;20.040;2023-01-08T14:31:28;21.10;53.60
54558;DHT22;40452;50.080;20.040;2023-01-08T14:33:56;21.20;53.60
54558;DHT22;40452;50.080;20.040;2023-01-08T14:36:23;21.10;53.60
54558;DHT22;40452;50.080;20.040;2023-01-08T14:38:50;21.10;53.60
54558;DHT22;40452;50.080;20.040;2023-01-08T14:43:47;21.10;53.60
54558;DHT22;40452;50.080;20.040;2023-01-08T14:46:25;21.10;53.60
54558;DHT22;40452;50.080;20.040;2023-01-08T14:48:51;21.10;53.60
54558;DHT22;40452;50.080;20.040;2023-01-08T14:51:24;21.10;53.60
54558;DHT22;40452;50.080;20.040;2023-01-08T14:53:55;21.10;53.60
54558;DHT22;40452;50.080;20.040;2023-01-08T14:56:28;21.10;53.60
54558;DHT22;40452;50.080;20.040;2023-01-08T14:58:55;21.10;53.60
54558;DHT22;40452;50.080;20.040;2023-01-08T15:01:25;21.10;53.50
54558;DHT22;40452;50.080;20.040;2023-01-08T15:06:32;21.10;53.60
54558;DHT22;40452;50.080;20.040;2023-01-08T15:08:58;21.10;53.50
54558;DHT22;40452;50.080;20.040;2023-01-08T15:11:26;21.10;53.50
54558;DHT22;40452;50.080;20.040;2023-01-08T15:13:53;21.20;53.60
54558;DHT22;40452;50.080;20.040;2023-01-08T15:16:37;21.10;53.50
54558;DHT22;40452;50.080;20.040;2023-01-08T15:19:14;21.10;53.60
54558;DHT22;40452;50.080;20.040;2023-01-08T15:21:48;21.10;53.50
54558;DHT22;40452;50.080;20.040;2023-01-08T15:24:26;21.10;53.50
54558;DHT22;40452;50.080;20.040;2023-01-08T15:26:52;21.10;53.50
54558;DHT22;40452;50.080;20.040;2023-01-08T15:29:29;21.10;53.50
54558;DHT22;40452;50.080;20.040;2023-01-08T15:32:21;21.10;53.50
54558;DHT22;40452;50.080;20.040;2023-01-08T15:34:47;21.10;53.60
54558;DHT22;40452;50.080;20.040;2023-01-08T15:37:14;21.10;53.60
54558;DHT22;40452;50.080;20.040;2023-01-08T15:39:40;21.10;53.60
54558;DHT22;40452;50.080;20.040;2023-01-08T15:42:20;21.10;53.50
54558;DHT22;40452;50.080;20.040;2023-01-08T15:45:15;21.10;53.50
54558;DHT22;40452;50.080;20.040;2023-01-08T15:47:41;21.10;53.50
54558;DHT22;40452;50.080;20.040;2023-01-08T15:50:07;21.10;53.50
54558;DHT22;40452;50.080;20.040;2023-01-08T15:52:33;21.10;54.20
54558;DHT22;40452;50.080;20.040;2023-01-08T15:54:59;21.10;53.50
54558;DHT22;40452;50.080;20.040;2023-01-08T15:57:25;21.10;53.50
54558;DHT22;40452;50.080;20.040;2023-01-08T15:59:51;21.10;53.50
54558;DHT22;40452;50.080;20.040;2023-01-08T16:02:17;21.00;53.50
54558;DHT22;40452;50.080;20.040;2023-01-08T16:04:43;21.10;53.50
54558;DHT22;40452;50.080;20.040;2023-01-08T16:07:09;21.10;53.50
54558;DHT22;40452;50.080;20.040;2023-01-08T16:09:34;21.10;53.50
54558;DHT22;40452;50.080;20.040;2023-01-08T16:12:00;21.10;53.50
54558;DHT22;40452;50.080;20.040;2023-01-08T16:14:25;21.10;53.50
54558;DHT22;40452;50.080;20.040;2023-01-08T16:16:52;21.10;53.50
54558;DHT22;40452;50.080;20.040;2023-01-08T16:19:17;21.10;53.40
54558;DHT22;40452;50.080;20.040;2023-01-08T16:21:43;21.10;53.40
54558;DHT22;40452;50.080;20.040;2023-01-08T16:24:12;21.10;53.50
54558;DHT22;40452;50.080;20.040;2023-01-08T16:26:38;21.10;53.40
54558;DHT22;40452;50.080;20.040;2023-01-08T16:29:03;21.10;53.40
54558;DHT22;40452;50.080;20.040;2023-01-08T16:31:29;21.10;53.50
54558;DHT22;40452;50.080;20.040;2023-01-08T16:34:04;21.10;53.40
54558;DHT22;40452;50.080;20.040;2023-01-08T16:36:30;21.10;53.50
54558;DHT22;40452;50.080;20.040;2023-01-08T16:38:55;21.10;53.50
54558;DHT22;40452;50.080;20.040;2023-01-08T16:41:21;21.10;53.50
54558;DHT22;40452;50.080;20.040;2023-01-08T16:43:47;21.10;53.50
54558;DHT22;40452;50.080;20.040;2023-01-08T16:46:14;21.10;53.50
54558;DHT22;40452;50.080;20.040;2023-01-08T16:48:42;21.10;53.60
54558;DHT22;40452;50.080;20.040;2023-01-08T16:51:12;21.10;53.60
54558;DHT22;40452;50.080;20.040;2023-01-08T16:53:37;21.10;53.60
54558;DHT22;40452;50.080;20.040;2023-01-08T16:56:06;21.10;53.60
54558;DHT22;40452;50.080;20.040;2023-01-08T16:58:32;21.10;53.60
54558;DHT22;40452;50.080;20.040;2023-01-08T17:01:00;21.10;53.60
54558;DHT22;40452;50.080;20.040;2023-01-08T17:03:29;21.10;53.60
54558;DHT22;40452;50.080;20.040;2023-01-08T17:05:54;21.10;53.60
54558;DHT22;40452;50.080;20.040;2023-01-08T17:08:26;21.10;53.60
54558;DHT22;40452;50.080;20.040;2023-01-08T17:10:52;21.10;54.20
54558;DHT22;40452;50.080;20.040;2023-01-08T17:13:18;21.10;53.60
54558;DHT22;40452;50.080;20.040;2023-01-08T17:15:43;21.10;53.60
54558;DHT22;40452;50.080;20.040;2023-01-08T17:18:09;21.00;53.60
54558;DHT22;40452;50.080;20.040;2023-01-08T17:20:35;21.10;53.70
54558;DHT22;40452;50.080;20.040;2023-01-08T17:23:00;21.10;53.70
54558;DHT22;40452;50.080;20.040;2023-01-08T17:25:26;21.10;53.70
54558;DHT22;40452;50.080;20.040;2023-01-08T17:27:52;21.10;53.60
54558;DHT22;40452;50.080;20.040;2023-01-08T17:30:17;21.10;53.70
54558;DHT22;40452;50.080;20.040;2023-01-08T17:32:43;21.10;53.70
54558;DHT22;40452;50.080;20.040;2023-01-08T17:35:09;21.10;53.70
54558;DHT22;40452;50.080;20.040;2023-01-08T17:37:35;21.00;53.60
54558;DHT22;40452;50.080;20.040;2023-01-08T17:40:00;21.10;53.70
54558;DHT22;40452;50.080;20.040;2023-01-08T17:42:27;21.10;53.70
54558;DHT22;40452;50.080;20.040;2023-01-08T17:44:57;21.00;53.60
54558;DHT22;40452;50.080;20.040;2023-01-08T17:47:25;21.10;53.70
54558;DHT22;40452;50.080;20.040;2023-01-08T17:49:53;21.00;53.60
54558;DHT22;40452;50.080;20.040;2023-01-08T17:52:23;21.00;53.60
54558;DHT22;40452;50.080;20.040;2023-01-08T17:54:50;21.00;53.60
54558;DHT22;40452;50.080;20.040;2023-01-08T17:57:19;21.00;53.60
54558;DHT22;40452;50.080;20.040;2023-01-08T17:59:45;21.00;53.60
54558;DHT22;40452;50.080;20.040;2023-01-08T18:02:13;21.00;53.70
54558;DHT22;40452;50.080;20.040;2023-01-08T18:04:39;21.00;53.60
54558;DHT22;40452;50.080;20.040;2023-01-08T18:07:05;21.00;53.60
54558;DHT22;40452;50.080;20.040;2023-01-08T18:09:31;21.00;53.70
54558;DHT22;40452;50.080;20.040;2023-01-08T18:11:57;21.00;53.60
54558;DHT22;40452;50.080;20.040;2023-01-08T18:14:23;21.10;53.70
54558;DHT22;40452;50.080;20.040;2023-01-08T18:16:48;21.10;53.70
54558;DHT22;40452;50.080;20.040;2023-01-08T18:19:15;21.10;53.70
54558;DHT22;40452;50.080;20.040;2023-01-08T18:21:42;21.10;53.70
54558;DHT22;40452;50.080;20.040;2023-01-08T18:24:08;21.10;53.70
54558;DHT22;40452;50.080;20.040;2023-01-08T18:26:34;21.10;53.70
54558;DHT22;40452;50.080;20.040;2023-01-08T18:29:00;21.10;53.70
54558;DHT22;40452;50.080;20.040;2023-01-08T18:31:26;21.10;53.70
54558;DHT22;40452;50.080;20.040;2023-01-08T18:33:51;21.10;53.70
54558;DHT22;40452;50.080;20.040;2023-01-08T18:36:18;21.10;53.70
54558;DHT22;40452;50.080;20.040;2023-01-08T18:38:44;21.20;53.70
54558;DHT22;40452;50.080;20.040;2023-01-08T18:41:18;21.10;53.60
54558;DHT22;40452;50.080;20.040;2023-01-08T18:44:05;21.10;53.60
54558;DHT22;40452;50.080;20.040;2023-01-08T18:46:33;21.10;53.60
54558;DHT22;40452;50.080;20.040;2023-01-08T18:49:07;21.10;53.60
54558;DHT22;40452;50.080;20.040;2023-01-08T18:51:32;21.10;53.60
54558;DHT22;40452;50.080;20.040;2023-01-08T18:53:59;21.10;53.60
54558;DHT22;40452;50.080;20.040;2023-01-08T18:56:34;21.10;53.60
54558;DHT22;40452;50.080;20.040;2023-01-08T18:59:01;21.10;53.60
54558;DHT22;40452;50.080;20.040;2023-01-08T19:01:27;21.10;53.70
54558;DHT22;40452;50.080;20.040;2023-01-08T19:03:53;21.00;53.60
54558;DHT22;40452;50.080;20.040;2023-01-08T19:06:25;21.10;53.70
54558;DHT22;40452;50.080;20.040;2023-01-08T19:08:51;21.10;53.70
54558;DHT22;40452;50.080;20.040;2023-01-08T19:11:16;21.00;53.70
54558;DHT22;40452;50.080;20.040;2023-01-08T19:13:42;21.10;53.70
54558;DHT22;40452;50.080;20.040;2023-01-08T19:16:10;21.10;53.70
54558;DHT22;40452;50.080;20.040;2023-01-08T19:18:39;21.10;53.70
54558;DHT22;40452;50.080;20.040;2023-01-08T19:21:08;21.00;53.70
54558;DHT22;40452;50.080;20.040;2023-01-08T19:23:35;21.00;53.70
54558;DHT22;40452;50.080;20.040;2023-01-08T19:26:05;21.00;53.70
54558;DHT22;40452;50.080;20.040;2023-01-08T19:28:31;21.00;53.70
54558;DHT22;40452;50.080;20.040;2023-01-08T19:30:58;21.00;53.70
54558;DHT22;40452;50.080;20.040;2023-01-08T19:33:24;21.00;53.70
54558;DHT22;40452;50.080;20.040;2023-01-08T19:35:50;21.00;53.70
54558;DHT22;40452;50.080;20.040;2023-01-08T19:38:16;21.00;53.70
54558;DHT22;40452;50.080;20.040;2023-01-08T19:40:43;21.00;53.80
54558;DHT22;40452;50.080;20.040;2023-01-08T19:43:09;21.00;53.70
54558;DHT22;40452;50.080;20.040;2023-01-08T19:46:02;21.00;53.70
54558;DHT22;40452;50.080;20.040;2023-01-08T19:48:33;21.00;53.70
54558;DHT22;40452;50.080;20.040;2023-01-08T19:51:09;21.00;53.70
54558;DHT22;40452;50.080;20.040;2023-01-08T19:53:34;21.00;53.80
54558;DHT22;40452;50.080;20.040;2023-01-08T19:56:09;20.90;53.70
54558;DHT22;40452;50.080;20.040;2023-01-08T19:58:35;21.00;53.80
54558;DHT22;40452;50.080;20.040;2023-01-08T20:01:07;21.00;53.80
54558;DHT22;40452;50.080;20.040;2023-01-08T20:03:33;21.00;53.80
54558;DHT22;40452;50.080;20.040;2023-01-08T20:05:59;21.00;54.50
54558;DHT22;40452;50.080;20.040;2023-01-08T20:08:24;21.00;53.80
54558;DHT22;40452;50.080;20.040;2023-01-08T20:10:50;21.00;53.80
54558;DHT22;40452;50.080;20.040;2023-01-08T20:13:18;21.00;53.80
54558;DHT22;40452;50.080;20.040;2023-01-08T20:15:43;21.00;53.80
54558;DHT22;40452;50.080;20.040;2023-01-08T20:18:09;20.90;53.70
54558;DHT22;40452;50.080;20.040;2023-01-08T20:20:35;20.90;53.70
54558;DHT22;40452;50.080;20.040;2023-01-08T20:23:00;21.00;53.70
54558;DHT22;40452;50.080;20.040;2023-01-08T20:25:26;21.00;53.80
54558;DHT22;40452;50.080;20.040;2023-01-08T20:27:51;21.00;53.80
54558;DHT22;40452;50.080;20.040;2023-01-08T20:30:17;21.00;53.80
54558;DHT22;40452;50.080;20.040;2023-01-08T20:32:43;21.00;53.80
54558;DHT22;40452;50.080;20.040;2023-01-08T20:35:09;21.00;53.80
54558;DHT22;40452;50.080;20.040;2023-01-08T20:37:34;20.90;53.70
54558;DHT22;40452;50.080;20.040;2023-01-08T20:40:00;20.90;53.70
54558;DHT22;40452;50.080;20.040;2023-01-08T20:42:25;21.00;53.70
54558;DHT22;40452;50.080;20.040;2023-01-08T20:44:51;20.90;53.70
54558;DHT22;40452;50.080;20.040;2023-01-08T20:47:17;20.90;53.70
54558;DHT22;40452;50.080;20.040;2023-01-08T20:49:42;21.00;53.80
54558;DHT22;40452;50.080;20.040;2023-01-08T20:52:08;21.00;53.70
54558;DHT22;40452;50.080;20.040;2023-01-08T20:54:33;20.90;53.70
54558;DHT22;40452;50.080;20.040;2023-01-08T20:56:59;20.90;53.70
54558;DHT22;40452;50.080;20.040;2023-01-08T20:59:26;21.00;53.70
54558;DHT22;40452;50.080;20.040;2023-01-08T21:01:51;20.90;53.70
54558;DHT22;40452;50.080;20.040;2023-01-08T21:04:17;20.90;53.70
54558;DHT22;40452;50.080;20.040;2023-01-08T21:06:43;20.90;53.70
54558;DHT22;40452;50.080;20.040;2023-01-08T21:09:10;21.00;53.80
54558;DHT22;40452;50.080;20.040;2023-01-08T21:11:38;20.90;53.70
54558;DHT22;40452;50.080;20.040;2023-01-08T21:14:04;21.00;53.80
54558;DHT22;40452;50.080;20.040;2023-01-08T21:16:32;20.90;53.70
54558;DHT22;40452;50.080;20.040;2023-01-08T21:19:00;21.00;53.70
54558;DHT22;40452;50.080;20.040;2023-01-08T21:21:31;20.90;53.70
54558;DHT22;40452;50.080;20.040;2023-01-08T21:23:58;20.90;53.70
54558;DHT22;40452;50.080;20.040;2023-01-08T21:26:24;21.00;53.70
54558;DHT22;40452;50.080;20.040;2023-01-08T21:28:51;21.00;53.70
54558;DHT22;40452;50.080;20.040;2023-01-08T21:31:21;20.90;53.70
54558;DHT22;40452;50.080;20.040;2023-01-08T21:33:48;20.90;53.70
54558;DHT22;40452;50.080;20.040;2023-01-08T21:36:16;20.90;53.60
54558;DHT22;40452;50.080;20.040;2023-01-08T21:38:42;21.00;53.70
54558;DHT22;40452;50.080;20.040;2023-01-08T21:41:10;20.90;53.70
54558;DHT22;40452;50.080;20.040;2023-01-08T21:43:36;20.90;53.70
54558;DHT22;40452;50.080;20.040;2023-01-08T21:46:26;20.90;53.70
54558;DHT22;40452;50.080;20.040;2023-01-08T21:48:52;20.90;53.70
54558;DHT22;40452;50.080;20.040;2023-01-08T21:51:18;21.00;53.80
